Terminal Aerodrome Forecast
Issued by NWS

Home | Current Version | Previous Version | Text Only | Print | Product List | Glossary On
Versions: 1 2 3 4 5 6 7 8 9 10 11 12
000
FTUS44 KTSA 201700
TAFMLC
TAF
KMLC 201739Z 2018/2118 18007KT P6SM VCSH SCT045 BKN070
     FM210000 17006KT P6SM VCSH OVC060
     FM210300 17006KT 5SM SHRA OVC050 PROB30 2103/2107 4SM -TSRA
      BKN015 OVC025CB
     FM210900 17004KT 5SM -SHRA OVC025
     FM211400 18004KT P6SM VCSH OVC015=

USA.gov is the U.S. government's official web portal to all federal, state and local government web resources and services.